Terminal Aerodrome Forecast
Issued by NWS Grand Forks, ND

Home | Current Version | Previous Version | Text Only | Print | Product List | Glossary Off
Versions: 1 2 3 4 5 6 7 8 9 10 11 12 13 14 15 16 17 18 19 20 21

000
FTUS43 KFGF 192044 AAA
TAFFAR
TAF AMD
KFAR 192044Z 1921/2018 14018G27KT P6SM SCT250
     FM192300 15013G22KT P6SM BKN250
     FM201100 16014KT P6SM OVC025
     FM201300 16013KT 4SM BR VCSH OVC020
     FM201600 19013KT 1 1/2SM BR VCSH OVC008=

USA.gov is the U.S. government's official web portal to all federal, state and local government web resources and services.